Time;durP1;ratioP1;P1;durP2;ratioP2;P2;SDS_P1;SDS_P2;PMS_P1;PMS_P2;Temp;Humidity;BMP_temperature;BMP_pressure;BME280_temperature;BME280_humidity;BME280_pressure;Samples;Min_cycle;Max_cycle;Signal;HPM_P1;HPM_P2
2023/03/05 00:00:18;;;;;;;27.97;18.70;;;;;;;8.28;99.90;94425.63;5054610;28;20439;-72
2023/03/05 00:02:45;;;;;;;29.00;19.90;;;;;;;8.30;99.79;94415.84;5019564;28;20451;-72
2023/03/05 00:05:13;;;;;;;31.20;18.30;;;;;;;8.28;99.73;94417.78;5054567;28;20436;-73
2023/03/05 00:07:40;;;;;;;36.57;20.60;;;;;;;8.29;99.52;94408.97;5054544;28;20460;-72
2023/03/05 00:10:08;;;;;;;30.87;18.97;;;;;;;8.30;99.79;94415.84;5053733;28;20445;-73
2023/03/05 00:12:35;;;;;;;25.90;17.83;;;;;;;8.32;99.22;94413.94;5054520;28;20451;-73
2023/03/05 00:15:01;;;;;;;32.17;17.23;;;;;;;8.29;99.49;94411.59;5054203;28;20967;-73
2023/03/05 00:17:29;;;;;;;24.83;17.13;;;;;;;8.27;99.42;94408.28;5054562;28;20529;-72
2023/03/05 00:19:57;;;;;;;27.33;18.07;;;;;;;8.23;99.39;94410.31;5054599;28;20444;-73
2023/03/05 00:22:26;;;;;;;27.77;17.70;;;;;;;8.19;99.46;94405.47;5054172;28;20440;-72
2023/03/05 00:24:53;;;;;;;31.57;18.83;;;;;;;8.15;99.33;94396.25;5054321;28;20854;-72
2023/03/05 00:27:20;;;;;;;27.90;18.43;;;;;;;8.13;99.87;94395.53;5054164;28;20536;-72
2023/03/05 00:29:46;;;;;;;31.33;19.50;;;;;;;8.08;100.00;94388.88;5054194;28;20447;-72
2023/03/05 00:32:13;;;;;;;29.73;18.70;;;;;;;8.04;100.00;94384.88;5054029;28;20856;-72
2023/03/05 00:34:40;;;;;;;31.37;19.53;;;;;;;7.99;100.00;94386.22;5053842;28;20913;-72
2023/03/05 00:37:07;;;;;;;29.13;18.80;;;;;;;8.00;100.00;94382.66;5053730;28;20834;-71
2023/03/05 00:39:35;;;;;;;37.80;21.40;;;;;;;8.06;100.00;94382.97;5053993;28;20495;-72
2023/03/05 00:42:02;;;;;;;35.30;21.10;;;;;;;8.10;100.00;94377.50;5053619;28;20946;-72
2023/03/05 00:44:29;;;;;;;37.53;22.00;;;;;;;8.13;100.00;94379.84;5054169;28;20489;-72
2023/03/05 00:46:55;;;;;;;38.10;21.27;;;;;;;8.15;100.00;94370.94;5018639;28;20447;-71
2023/03/05 00:49:22;;;;;;;34.03;20.27;;;;;;;8.21;100.00;94370.41;5018804;28;20459;-73
2023/03/05 00:51:49;;;;;;;34.80;20.73;;;;;;;8.22;100.00;94376.47;5034969;28;20444;-72
2023/03/05 00:54:16;;;;;;;34.97;21.53;;;;;;;8.24;100.00;94371.94;5053766;28;20508;-71
2023/03/05 00:56:44;;;;;;;32.07;21.20;;;;;;;8.26;100.00;94365.63;5053759;28;20942;-72
2023/03/05 00:59:11;;;;;;;35.20;23.23;;;;;;;8.27;100.00;94366.44;5053771;28;20483;-72
2023/03/05 01:01:37;;;;;;;33.50;20.87;;;;;;;8.24;100.00;94369.31;5053642;28;20498;-71
2023/03/05 01:04:04;;;;;;;36.73;21.07;;;;;;;8.18;100.00;94365.44;5053569;28;20448;-72
2023/03/05 01:06:31;;;;;;;34.30;22.20;;;;;;;8.12;100.00;94355.50;5053850;28;20992;-72
2023/03/05 01:08:58;;;;;;;33.17;22.47;;;;;;;8.10;100.00;94354.81;5053251;28;20448;-73
2023/03/05 01:11:25;;;;;;;30.47;21.77;;;;;;;8.09;100.00;94350.53;5053760;28;20437;-72
2023/03/05 01:13:53;;;;;;;31.47;20.37;;;;;;;8.12;100.00;94355.50;5053694;28;20922;-72
2023/03/05 01:16:20;;;;;;;33.40;20.60;;;;;;;8.09;100.00;94350.53;5052932;28;20446;-72
2023/03/05 01:18:47;;;;;;;35.40;18.80;;;;;;;8.07;100.00;94345.41;5053163;28;20478;-69
2023/03/05 01:21:14;;;;;;;31.03;20.30;;;;;;;8.14;100.00;94352.78;5018043;28;20509;-73
2023/03/05 01:23:40;;;;;;;29.80;18.97;;;;;;;8.19;100.00;94350.59;5052935;28;20930;-72
2023/03/05 01:26:08;;;;;;;30.97;19.77;;;;;;;8.24;100.00;94349.25;5053207;28;20447;-73
2023/03/05 01:28:36;;;;;;;29.13;19.57;;;;;;;8.27;100.00;94340.31;5053136;28;20513;-71
2023/03/05 01:31:08;;;;;;;30.20;19.73;;;;;;;8.29;99.98;94349.69;5053042;28;20447;-72
2023/03/05 01:33:35;;;;;;;27.80;18.77;;;;;;;8.25;99.44;94344.84;5052849;28;20452;-71
2023/03/05 01:36:02;;;;;;;32.13;20.77;;;;;;;8.24;99.43;94337.97;5053283;28;20995;-72
2023/03/05 01:38:29;;;;;;;31.80;20.23;;;;;;;8.27;99.43;94348.97;5052825;28;20490;-72
2023/03/05 01:40:56;;;;;;;30.50;18.30;;;;;;;8.26;99.35;94349.13;5052989;28;20966;-70
2023/03/05 01:43:27;;;;;;;38.20;21.70;;;;;;;8.22;98.90;94345.09;5052939;28;20943;-72
2023/03/05 01:46:28;;;;;;;33.40;21.00;;;;;;;8.15;99.00;94343.97;5052717;28;20450;-71
2023/03/05 01:49:02;;;;;;;35.20;19.23;;;;;;;8.15;98.67;94341.38;5053181;28;20454;-72
2023/03/05 01:51:31;;;;;;;30.43;19.73;;;;;;;8.13;99.22;94340.66;5052654;28;20538;-72
2023/03/05 01:54:00;;;;;;;34.67;20.33;;;;;;;8.15;98.93;94343.97;5052648;28;20440;-72
2023/03/05 01:56:29;;;;;;;30.30;20.30;;;;;;;8.15;98.43;94349.19;5052591;28;20485;-72
2023/03/05 01:59:02;;;;;;;36.70;20.63;;;;;;;8.17;99.18;94352.50;5052614;28;20495;-71
2023/03/05 02:01:32;;;;;;;35.50;21.67;;;;;;;8.15;99.70;94346.59;5052682;28;20899;-72
2023/03/05 02:03:59;;;;;;;37.43;20.63;;;;;;;8.11;99.47;94346.03;5052722;28;20525;-73
2023/03/05 02:06:26;;;;;;;34.23;19.57;;;;;;;8.10;99.67;94341.75;5052451;28;20458;-71
2023/03/05 02:08:53;;;;;;;35.13;21.00;;;;;;;8.13;100.00;94343.28;5052459;28;20494;-70
2023/03/05 02:11:20;;;;;;;35.57;20.23;;;;;;;8.13;100.00;94343.28;5052394;28;20443;-70
2023/03/05 02:13:47;;;;;;;32.80;20.33;;;;;;;8.14;99.95;94344.94;5052350;28;20452;-72
2023/03/05 02:16:14;;;;;;;31.50;19.87;;;;;;;8.15;100.00;94341.38;5052234;28;20445;-72
2023/03/05 02:18:42;;;;;;;35.07;19.73;;;;;;;8.19;99.95;94342.75;5052268;28;20556;-71
2023/03/05 02:21:11;;;;;;;34.97;20.47;;;;;;;8.24;99.41;94341.41;5052132;28;20507;-71
2023/03/05 02:23:39;;;;;;;33.50;20.80;;;;;;;8.26;99.31;94349.13;5052188;28;20443;-72
2023/03/05 02:26:08;;;;;;;28.93;19.70;;;;;;;8.25;99.17;94344.84;5052099;28;20451;-72
2023/03/05 02:28:39;;;;;;;35.37;20.67;;;;;;;8.23;98.69;94347.59;5052262;28;20460;-71
2023/03/05 02:31:10;;;;;;;42.60;22.97;;;;;;;8.20;98.75;94347.03;5052237;28;20852;-72
2023/03/05 02:33:37;;;;;;;29.87;19.10;;;;;;;8.16;98.99;94349.06;5016480;28;20585;-72
2023/03/05 02:36:05;;;;;;;31.30;19.37;;;;;;;8.15;98.86;94349.19;5052260;28;20443;-73
2023/03/05 02:38:33;;;;;;;31.80;20.47;;;;;;;8.11;99.08;94342.56;5051912;28;20475;-70
2023/03/05 02:41:00;;;;;;;33.87;19.10;;;;;;;8.08;99.71;94341.84;5051915;28;20443;-73
2023/03/05 02:43:27;;;;;;;30.07;18.77;;;;;;;8.11;100.00;94345.19;5051856;28;20447;-71
2023/03/05 02:45:54;;;;;;;36.10;20.67;;;;;;;7.85;100.00;94348.19;5016907;28;20454;-71
2023/03/05 02:48:20;;;;;;;34.97;19.10;;;;;;;7.96;100.00;94342.88;5016912;28;20448;-71
2023/03/05 02:50:48;;;;;;;34.83;20.57;;;;;;;8.02;99.97;94346.78;5051980;28;20440;-72
2023/03/05 02:53:15;;;;;;;32.63;20.63;;;;;;;8.08;100.00;94354.09;5051709;28;20446;-72
2023/03/05 02:55:46;;;;;;;31.00;20.63;;;;;;;8.12;100.00;94350.28;5052151;28;20449;-70
2023/03/05 02:58:13;;;;;;;38.63;21.27;;;;;;;8.16;99.82;94343.84;5051917;28;20467;-70
2023/03/05 03:00:40;;;;;;;29.43;19.70;;;;;;;8.17;99.71;94342.88;5051899;28;20943;-70
2023/03/05 03:03:07;;;;;;;30.20;18.37;;;;;;;8.17;100.00;94349.91;5051783;28;20444;-72
2023/03/05 03:05:35;;;;;;;32.50;20.57;;;;;;;8.20;99.70;94347.03;5051639;28;20451;-73
2023/03/05 03:08:02;;;;;;;36.33;21.03;;;;;;;8.20;99.58;94349.63;5051981;28;20454;-72
2023/03/05 03:10:29;;;;;;;31.57;18.73;;;;;;;8.18;99.62;94343.72;5051901;28;20455;-71
2023/03/05 03:12:57;;;;;;;34.27;19.60;;;;;;;8.17;99.66;94344.66;5051805;28;20466;-72
2023/03/05 03:15:24;;;;;;;35.77;20.03;;;;;;;8.16;99.68;94345.63;5051729;28;20455;-72
2023/03/05 03:17:50;;;;;;;31.50;19.50;;;;;;;8.07;98.88;94348.03;5051562;28;20469;-73
2023/03/05 03:20:18;;;;;;;30.90;19.97;;;;;;;7.96;97.35;94349.91;5051401;28;20509;-72
2023/03/05 03:22:46;;;;;;;33.83;19.87;;;;;;;7.81;95.71;94346.78;5032993;28;20440;-72
2023/03/05 03:25:15;;;;;;;34.67;18.87;;;;;;;7.78;95.20;94354.84;5051517;28;20456;-72
2023/03/05 03:27:42;;;;;;;28.33;18.43;;;;;;;7.64;92.36;94352.56;5051669;28;20450;-72
2023/03/05 03:30:12;;;;;;;31.60;18.50;;;;;;;7.58;92.29;94353.06;5051518;28;20851;-72
2023/03/05 03:32:39;;;;;;;31.13;17.73;;;;;;;7.49;91.51;94349.41;5051787;28;20544;-72
2023/03/05 03:35:07;;;;;;;31.60;17.73;;;;;;;7.37;91.53;94343.41;5051467;28;20973;-72
2023/03/05 03:37:34;;;;;;;32.93;19.50;;;;;;;7.36;91.27;94341.75;5051491;28;20446;-71
2023/03/05 03:40:01;;;;;;;31.50;17.90;;;;;;;7.34;91.15;94345.44;5016538;28;20831;-72
2023/03/05 03:42:27;;;;;;;30.50;16.67;;;;;;;7.26;91.39;94346.06;5016421;28;20797;-72
2023/03/05 03:44:54;;;;;;;30.03;17.10;;;;;;;7.26;91.79;94343.47;5033086;28;20457;-71
2023/03/05 03:47:22;;;;;;;32.80;17.73;;;;;;;7.21;91.33;94342.16;5054863;28;20937;-70
2023/03/05 03:49:49;;;;;;;32.83;18.47;;;;;;;7.11;91.33;94342.06;5055095;28;20508;-71
2023/03/05 03:52:16;;;;;;;34.87;18.13;;;;;;;7.07;92.28;94341.47;5055184;28;20507;-72
2023/03/05 03:54:43;;;;;;;32.17;18.20;;;;;;;7.05;91.05;94337.34;5055083;28;20540;-71
2023/03/05 03:57:09;;;;;;;36.20;18.90;;;;;;;7.02;92.08;94348.03;5019835;28;20449;-69
2023/03/05 03:59:36;;;;;;;29.60;18.10;;;;;;;6.98;91.88;94350.06;5055011;28;20477;-72
2023/03/05 04:02:03;;;;;;;32.60;18.40;;;;;;;6.84;92.43;94345.91;5055171;28;20445;-71
2023/03/05 04:04:31;;;;;;;29.93;18.80;;;;;;;6.80;92.50;94349.72;5055028;28;20441;-72
2023/03/05 04:06:58;;;;;;;28.73;17.20;;;;;;;6.72;93.02;94359.94;5054638;28;20499;-72
2023/03/05 04:09:24;;;;;;;37.13;18.87;;;;;;;6.75;92.52;94346.66;5054656;28;20449;-71
2023/03/05 04:11:51;;;;;;;32.40;20.00;;;;;;;6.74;92.77;94350.19;5054770;28;20503;-72
2023/03/05 04:14:18;;;;;;;33.87;19.13;;;;;;;6.68;93.45;94350.69;5054495;28;20441;-72
2023/03/05 04:16:45;;;;;;;36.27;19.17;;;;;;;6.73;93.29;94358.97;5054616;28;20515;-73
2023/03/05 04:19:11;;;;;;;37.23;18.30;;;;;;;6.74;92.69;94351.97;5054458;28;20510;-72
2023/03/05 04:21:40;;;;;;;40.23;20.80;;;;;;;6.73;92.82;94347.72;5054577;28;20445;-72
2023/03/05 04:24:08;;;;;;;26.20;16.87;;;;;;;6.79;92.24;94358.50;5019245;28;20537;-71
2023/03/05 04:26:35;;;;;;;32.57;19.93;;;;;;;6.85;91.79;94351.97;5054405;28;20442;-72
2023/03/05 04:29:01;;;;;;;36.10;19.63;;;;;;;6.88;92.21;94353.50;5054205;28;20504;-71
2023/03/05 04:31:28;;;;;;;40.17;19.87;;;;;;;6.97;92.53;94350.19;5054445;28;20450;-71
2023/03/05 04:33:55;;;;;;;37.30;20.10;;;;;;;7.05;91.94;94346.00;5054037;28;20535;-71
2023/03/05 04:36:22;;;;;;;35.63;20.23;;;;;;;7.08;91.39;94353.56;5054095;28;20442;-72
2023/03/05 04:38:50;;;;;;;32.37;17.80;;;;;;;6.96;91.03;94348.53;5054460;28;20546;-71
2023/03/05 04:41:17;;;;;;;39.37;19.00;;;;;;;6.94;91.24;94346.03;5053063;28;20446;-72
2023/03/05 04:43:43;;;;;;;32.77;17.17;;;;;;;6.79;91.56;94340.25;5050931;28;22087;-71
2023/03/05 04:46:10;;;;;;;37.77;19.47;;;;;;;6.65;91.56;94343.13;5034987;28;20441;-71
2023/03/05 04:48:37;;;;;;;33.73;20.40;;;;;;;6.68;91.96;94344.66;5054387;28;20809;-72
2023/03/05 04:51:04;;;;;;;37.63;18.50;;;;;;;6.70;92.19;94351.41;5056964;28;20444;-72
2023/03/05 04:53:31;;;;;;;34.40;20.60;;;;;;;6.83;92.62;94348.66;5035117;28;20503;-72
2023/03/05 04:56:00;;;;;;;42.57;20.67;;;;;;;6.87;92.02;94347.44;5053722;28;20503;-72
2023/03/05 04:58:27;;;;;;;38.37;21.40;;;;;;;6.98;91.47;94351.84;5054155;28;20451;-72
2023/03/05 05:00:54;;;;;;;32.90;21.17;;;;;;;7.09;91.25;94349.19;5034559;28;20862;-72
2023/03/05 05:03:21;;;;;;;41.43;19.90;;;;;;;7.16;90.65;94350.34;5053696;28;20450;-72
2023/03/05 05:05:54;;;;;;;35.30;19.40;;;;;;;7.23;90.13;94343.72;5054280;28;20446;-72
2023/03/05 05:08:21;;;;;;;31.23;18.37;;;;;;;7.15;89.01;94353.91;5053822;28;20449;-72
2023/03/05 05:10:56;;;;;;;34.27;17.90;;;;;;;7.12;88.43;94359.38;5053882;28;20537;-71
2023/03/05 05:13:24;;;;;;;36.90;20.43;;;;;;;7.13;88.76;94355.81;5053649;28;20456;-71
2023/03/05 05:15:51;;;;;;;29.60;16.80;;;;;;;7.20;88.15;94362.19;5053977;28;20453;-70
2023/03/05 05:18:18;;;;;;;33.77;18.70;;;;;;;7.17;87.98;94362.44;5053761;28;20442;-71
2023/03/05 05:20:45;;;;;;;29.63;17.30;;;;;;;7.14;87.63;94360.06;5034998;28;20540;-72
2023/03/05 05:23:11;;;;;;;28.07;17.83;;;;;;;7.08;87.38;94363.19;5034743;28;20442;-72
2023/03/05 05:25:38;;;;;;;35.97;17.70;;;;;;;7.10;87.97;94362.09;5053647;28;20455;-72
2023/03/05 05:28:05;;;;;;;33.63;18.70;;;;;;;7.11;87.47;94368.16;5053367;28;20850;-71
2023/03/05 05:30:33;;;;;;;27.87;17.23;;;;;;;7.07;86.75;94359.75;5053522;28;20447;-71
2023/03/05 05:33:00;;;;;;;29.73;16.77;;;;;;;6.99;86.77;94369.97;5018042;28;20965;-72
2023/03/05 05:35:27;;;;;;;27.60;17.23;;;;;;;6.90;86.34;94359.41;5053337;28;20995;-72
2023/03/05 05:37:54;;;;;;;30.03;16.10;;;;;;;6.92;86.24;94373.16;5053111;28;20501;-72
2023/03/05 05:40:21;;;;;;;30.90;17.67;;;;;;;6.97;86.15;94373.66;5052871;28;20992;-71
2023/03/05 05:42:47;;;;;;;36.07;18.73;;;;;;;7.01;85.49;94377.66;5053367;28;20824;-72
2023/03/05 05:45:14;;;;;;;32.50;17.07;;;;;;;7.08;85.01;94378.84;5053029;28;20452;-72
2023/03/05 05:47:43;;;;;;;24.33;13.47;;;;;;;7.15;84.17;94378.22;5052879;28;20453;-73
2023/03/05 05:50:11;;;;;;;28.63;15.00;;;;;;;7.30;83.43;94383.19;5030815;28;20916;-73
2023/03/05 05:52:38;;;;;;;35.93;17.53;;;;;;;7.42;82.69;94383.00;5001404;28;20956;-72
2023/03/05 05:55:06;;;;;;;31.27;17.50;;;;;;;7.53;81.97;94391.78;5052570;28;20468;-72
2023/03/05 05:57:34;;;;;;;24.77;15.00;;;;;;;7.64;81.47;94389.94;5052625;28;20446;-73
2023/03/05 06:00:01;;;;;;;30.83;17.03;;;;;;;7.78;79.96;94394.03;5053045;28;20482;-72
2023/03/05 06:02:27;;;;;;;33.23;18.57;;;;;;;7.92;79.99;94393.75;5053140;28;20431;-72
2023/03/05 06:04:56;;;;;;;31.03;15.53;;;;;;;7.98;78.81;94390.63;5052805;28;20508;-72
2023/03/05 06:07:23;;;;;;;24.73;15.30;;;;;;;8.04;78.32;94392.72;5052513;28;20857;-72
2023/03/05 06:09:50;;;;;;;29.57;15.60;;;;;;;8.05;77.46;94394.38;5052489;28;20452;-72
2023/03/05 06:12:17;;;;;;;23.47;15.90;;;;;;;8.02;77.85;94399.03;5052667;28;20508;-72
2023/03/05 06:14:44;;;;;;;21.00;12.80;;;;;;;7.90;76.46;94397.44;5053234;28;20494;-72
2023/03/05 06:17:10;;;;;;;26.83;12.90;;;;;;;8.01;76.36;94406.03;5052782;28;20453;-73
2023/03/05 06:19:37;;;;;;;29.53;16.60;;;;;;;8.23;76.55;94402.47;5052687;28;20494;-73
2023/03/05 06:22:05;;;;;;;22.60;13.20;;;;;;;8.36;74.56;94407.53;5052822;28;20513;-72
2023/03/05 06:24:32;;;;;;;28.90;16.33;;;;;;;8.40;74.29;94415.97;5052707;28;20447;-72
2023/03/05 06:26:59;;;;;;;27.93;12.70;;;;;;;8.49;73.94;94410.78;5052825;28;20447;-73
2023/03/05 06:29:25;;;;;;;22.17;14.27;;;;;;;8.34;73.09;94414.66;5052551;28;20455;-72
2023/03/05 06:31:52;;;;;;;24.53;12.87;;;;;;;8.48;73.24;94416.16;5052773;28;20496;-73
2023/03/05 06:34:19;;;;;;;24.20;13.27;;;;;;;8.62;73.68;94415.78;5052512;28;20867;-72
2023/03/05 06:36:46;;;;;;;24.60;13.87;;;;;;;8.75;71.82;94412.97;5052641;28;20440;-73
2023/03/05 06:39:14;;;;;;;24.73;13.50;;;;;;;8.81;71.59;94410.66;5051962;28;20837;-72
2023/03/05 06:41:41;;;;;;;21.43;12.03;;;;;;;8.87;70.44;94425.81;5052213;28;20447;-72
2023/03/05 06:44:07;;;;;;;21.97;13.50;;;;;;;8.81;69.86;94421.13;5052600;28;20455;-72
2023/03/05 06:46:38;;;;;;;27.50;15.40;;;;;;;8.91;70.24;94415.94;5052020;28;20506;-71
2023/03/05 06:49:05;;;;;;;30.83;12.60;;;;;;;8.85;68.34;94411.22;5051824;28;20485;-73
2023/03/05 06:51:34;;;;;;;23.10;13.23;;;;;;;8.79;69.18;94422.22;5032816;28;20435;-73
2023/03/05 06:54:04;;;;;;;20.90;12.57;;;;;;;8.60;68.08;94428.16;5051857;28;20512;-72
2023/03/05 06:56:34;;;;;;;24.57;15.27;;;;;;;8.72;68.87;94423.72;5051285;28;20447;-71
2023/03/05 06:59:01;;;;;;;23.80;14.80;;;;;;;8.80;67.77;94423.88;5051235;28;20979;-72
2023/03/05 07:01:28;;;;;;;27.30;15.27;;;;;;;8.92;67.86;94425.44;5051702;28;20451;-73
2023/03/05 07:03:57;;;;;;;24.87;14.70;;;;;;;9.08;66.91;94427.56;5051913;28;20447;-73
2023/03/05 07:06:26;;;;;;;24.13;14.90;;;;;;;9.13;66.59;94423.59;5051622;28;20459;-72
2023/03/05 07:08:55;;;;;;;24.07;14.47;;;;;;;9.34;66.57;94425.31;5051388;28;20535;-74
2023/03/05 07:11:24;;;;;;;28.67;16.10;;;;;;;9.44;65.14;94426.16;5050970;28;20838;-73
2023/03/05 07:13:52;;;;;;;31.37;16.70;;;;;;;9.54;64.60;94432.22;5051454;28;20452;-73
2023/03/05 07:16:22;;;;;;;19.60;13.80;;;;;;;9.52;63.88;94440.22;5051181;28;20823;-74
2023/03/05 07:18:49;;;;;;;18.73;12.80;;;;;;;9.52;64.21;94423.69;5052146;28;20453;-73
2023/03/05 07:21:19;;;;;;;26.00;14.07;;;;;;;9.58;63.99;94428.41;5054995;28;20545;-73
2023/03/05 07:23:46;;;;;;;29.73;18.23;;;;;;;9.62;63.99;94432.41;5055368;28;20513;-73
2023/03/05 07:26:13;;;;;;;33.00;18.67;;;;;;;9.72;64.50;94435.03;5055459;28;20810;-73
2023/03/05 07:28:41;;;;;;;31.00;16.50;;;;;;;9.86;63.63;94419.75;5055443;28;20865;-74
2023/03/05 07:31:13;;;;;;;38.73;14.87;;;;;;;9.87;63.92;94416.16;5055287;28;20436;-73
2023/03/05 07:33:40;;;;;;;24.20;13.60;;;;;;;10.21;64.77;94428.88;5055314;28;20481;-73
2023/03/05 07:36:08;;;;;;;26.50;14.50;;;;;;;10.17;67.70;94416.97;5055482;28;20445;-72
2023/03/05 07:38:34;;;;;;;27.63;16.07;;;;;;;10.07;63.68;94419.59;5055624;28;20502;-73
2023/03/05 07:41:03;;;;;;;27.90;16.30;;;;;;;9.80;64.94;94422.88;5052692;28;20984;-74
2023/03/05 07:43:30;;;;;;;28.17;16.10;;;;;;;9.62;63.92;94421.94;5019720;28;20527;-74
2023/03/05 07:45:56;;;;;;;28.33;17.17;;;;;;;9.75;65.98;94432.97;5054588;28;20451;-73
2023/03/05 07:48:25;;;;;;;31.87;17.00;;;;;;;9.68;65.16;94429.22;5055106;28;20447;-74
2023/03/05 07:51:00;;;;;;;30.07;17.23;;;;;;;9.41;64.50;94429.88;5054821;28;20445;-73
2023/03/05 07:53:27;;;;;;;26.03;16.67;;;;;;;9.12;65.75;94419.31;5042345;28;20452;-73
2023/03/05 07:55:54;;;;;;;29.30;17.50;;;;;;;8.98;68.42;94427.53;5054974;28;20498;-73
2023/03/05 07:58:21;;;;;;;36.53;23.43;;;;;;;8.91;69.08;94429.84;5054786;28;20491;-73
2023/03/05 08:00:47;;;;;;;32.03;20.00;;;;;;;9.04;71.80;94420.94;5052851;28;20484;-73
2023/03/05 08:03:14;;;;;;;30.30;17.87;;;;;;;9.05;69.81;94420.81;5054491;28;20453;-73
2023/03/05 08:05:43;;;;;;;32.43;21.30;;;;;;;9.21;71.55;94412.44;5054761;28;20449;-73
2023/03/05 08:08:10;;;;;;;39.07;23.40;;;;;;;9.15;67.71;94421.66;5054589;28;20452;-73
2023/03/05 08:10:37;;;;;;;32.87;19.67;;;;;;;9.26;69.46;94415.53;5053959;28;20440;-74
2023/03/05 08:13:05;;;;;;;34.93;19.57;;;;;;;9.29;71.40;94412.63;5054651;28;20446;-73
2023/03/05 08:15:32;;;;;;;28.37;17.70;;;;;;;9.12;69.10;94419.31;5054744;28;20495;-73
2023/03/05 08:17:59;;;;;;;34.00;21.20;;;;;;;8.93;69.80;94408.78;5054292;28;20448;-72
2023/03/05 08:20:26;;;;;;;38.67;22.10;;;;;;;8.91;69.95;94415.94;5053927;28;20892;-72
2023/03/05 08:22:54;;;;;;;41.93;20.23;;;;;;;8.83;70.37;94418.38;5054278;28;20460;-73
2023/03/05 08:25:21;;;;;;;29.53;18.60;;;;;;;8.78;71.75;94415.34;5053842;28;20451;-73
2023/03/05 08:27:48;;;;;;;33.00;19.10;;;;;;;8.67;73.06;94413.59;5053993;28;20448;-73
2023/03/05 08:30:18;;;;;;;29.77;19.13;;;;;;;8.53;73.83;94417.41;5053696;28;20451;-72
2023/03/05 08:32:45;;;;;;;37.00;21.73;;;;;;;8.58;72.73;94417.00;5053417;28;20837;-72
2023/03/05 08:35:12;;;;;;;34.93;20.50;;;;;;;8.67;75.64;94409.25;5040926;28;20484;-72
2023/03/05 08:37:39;;;;;;;37.27;20.70;;;;;;;8.59;70.92;94406.41;5054177;28;20447;-73
2023/03/05 08:40:10;;;;;;;37.63;21.40;;;;;;;8.57;71.97;94410.97;5053257;28;20885;-73
2023/03/05 08:42:36;;;;;;;33.10;19.03;;;;;;;8.56;71.21;94406.69;5039565;28;20463;-73
2023/03/05 08:45:03;;;;;;;35.03;19.63;;;;;;;8.59;72.19;94406.41;5033456;28;20449;-73
2023/03/05 08:47:30;;;;;;;31.47;18.67;;;;;;;8.58;71.40;94402.16;5052712;28;20452;-71
2023/03/05 08:49:57;;;;;;;32.50;18.37;;;;;;;8.57;71.26;94400.50;5053844;28;20447;-71
2023/03/05 08:52:26;;;;;;;39.77;20.63;;;;;;;8.60;72.64;94397.63;5052813;28;20501;-73
2023/03/05 08:54:53;;;;;;;31.20;17.63;;;;;;;8.71;72.47;94401.13;5045169;28;21055;-73
2023/03/05 08:57:21;;;;;;;39.57;19.20;;;;;;;8.77;71.37;94403.22;5051768;28;20461;-73
2023/03/05 08:59:48;;;;;;;38.50;19.43;;;;;;;8.71;70.81;94394.09;5053117;28;20509;-74
2023/03/05 09:02:14;;;;;;;38.87;18.80;;;;;;;8.72;71.76;94394.94;5034144;28;20501;-73
2023/03/05 09:04:41;;;;;;;35.60;20.40;;;;;;;8.72;70.91;94394.94;5052544;28;20443;-73
2023/03/05 09:07:08;;;;;;;31.73;19.90;;;;;;;8.79;71.11;94381.19;5052428;28;20447;-73
2023/03/05 09:09:35;;;;;;;41.70;21.03;;;;;;;8.92;71.43;94383.56;5053100;28;20947;-72
2023/03/05 09:12:02;;;;;;;32.83;18.90;;;;;;;8.96;71.91;94382.34;5044619;28;20441;-73
2023/03/05 09:14:30;;;;;;;27.13;17.93;;;;;;;9.00;70.21;94384.59;5033545;28;20856;-72
2023/03/05 09:16:58;;;;;;;35.10;18.60;;;;;;;9.06;68.01;94371.91;5032723;28;20438;-73
2023/03/05 09:19:27;;;;;;;33.93;19.13;;;;;;;9.05;66.79;94380.72;5033120;28;20449;-73
2023/03/05 09:21:54;;;;;;;31.17;18.10;;;;;;;9.11;67.00;94375.78;5033150;28;20575;-73
2023/03/05 09:24:20;;;;;;;28.67;17.40;;;;;;;9.18;65.32;94376.06;5033003;28;20438;-73
2023/03/05 09:26:47;;;;;;;31.07;18.17;;;;;;;9.21;64.60;94366.16;5038314;28;20501;-73
2023/03/05 09:29:14;;;;;;;34.87;18.83;;;;;;;9.28;65.13;94367.28;5053110;28;20508;-73
2023/03/05 09:31:42;;;;;;;36.43;19.17;;;;;;;9.37;66.35;94356.97;5049524;28;20450;-73
2023/03/05 09:34:11;;;;;;;31.20;19.77;;;;;;;9.47;63.35;94365.66;4985224;28;20519;-73
2023/03/05 09:36:38;;;;;;;34.70;18.33;;;;;;;9.44;62.21;94361.50;5048080;28;20505;-72
2023/03/05 09:39:05;;;;;;;34.50;20.83;;;;;;;9.51;61.62;94356.56;5033247;28;20857;-73
2023/03/05 09:41:52;;;;;;;30.07;18.87;;;;;;;9.48;62.34;94357.66;5035117;28;21250;-73
2023/03/05 09:44:32;;;;;;;26.80;15.33;;;;;;;9.59;63.09;94354.09;5031937;28;20457;-73
2023/03/05 09:47:16;;;;;;;26.63;16.20;;;;;;;9.62;60.94;94345.97;5032226;28;20929;-73
2023/03/05 09:49:51;;;;;;;25.07;15.50;;;;;;;9.53;59.64;94347.59;5032397;28;20840;-74
2023/03/05 09:52:21;;;;;;;29.43;18.83;;;;;;;9.54;62.71;94344.03;5032165;28;20461;-74
2023/03/05 09:54:53;;;;;;;28.43;16.57;;;;;;;9.51;59.86;94346.06;5032196;28;20951;-71
2023/03/05 09:57:23;;;;;;;26.30;16.57;;;;;;;9.47;60.09;94344.69;5031898;28;20564;-73
2023/03/05 09:59:54;;;;;;;30.43;18.10;;;;;;;9.50;60.69;94340.00;5032258;28;20507;-72
2023/03/05 10:02:26;;;;;;;28.00;17.00;;;;;;;9.54;61.22;94344.03;5004211;28;20484;-73
2023/03/05 10:04:57;;;;;;;32.03;17.17;;;;;;;9.57;62.47;94345.56;5043400;28;20469;-73
2023/03/05 10:07:28;;;;;;;37.80;19.80;;;;;;;9.60;60.30;94345.28;5051795;28;20926;-72
2023/03/05 10:09:59;;;;;;;34.47;19.90;;;;;;;9.66;61.46;94336.84;5039759;28;20819;-71
2023/03/05 10:12:34;;;;;;;33.43;18.60;;;;;;;9.77;64.36;94336.69;5051933;28;21024;-72
2023/03/05 10:15:02;;;;;;;28.87;16.63;;;;;;;9.84;61.99;94327.34;5051803;28;20514;-72
2023/03/05 10:18:07;;;;;;;31.43;18.60;;;;;;;9.93;60.47;94330.91;5052102;28;20489;-71
2023/03/05 10:20:45;;;;;;;30.83;19.37;;;;;;;10.07;62.82;94329.63;4989962;28;20488;-71
2023/03/05 10:23:24;;;;;;;27.83;18.93;;;;;;;10.17;60.67;94314.72;4989891;28;20443;-72
2023/03/05 10:25:59;;;;;;;28.93;18.67;;;;;;;10.20;59.18;94319.69;4990362;28;20481;-72
2023/03/05 10:28:34;;;;;;;32.73;19.77;;;;;;;10.26;58.08;94315.69;4990211;28;20454;-71
2023/03/05 10:31:23;;;;;;;31.40;17.03;;;;;;;10.28;59.01;94316.38;4990049;28;20448;-73
2023/03/05 10:34:01;;;;;;;34.83;19.27;;;;;;;10.08;58.87;94292.78;4989678;28;20514;-72
2023/03/05 10:36:45;;;;;;;31.03;18.00;;;;;;;10.02;57.24;94289.91;4941568;28;20444;-71
2023/03/05 10:39:40;;;;;;;31.93;17.80;;;;;;;10.02;58.15;94284.69;4990770;28;20440;-71
2023/03/05 10:42:16;;;;;;;27.13;17.83;;;;;;;10.05;59.33;94293.06;4932495;29;20494;-72
2023/03/05 10:44:47;;;;;;;26.97;17.57;;;;;;;10.11;59.82;94283.81;4901074;29;20459;-72
2023/03/05 10:47:21;;;;;;;28.80;17.90;;;;;;;10.09;59.10;94283.13;4932061;29;20461;-71
2023/03/05 10:49:52;;;;;;;29.53;17.20;;;;;;;10.13;60.53;94274.88;4932235;29;20449;-73
2023/03/05 10:52:22;;;;;;;30.10;17.20;;;;;;;10.24;61.62;94260.78;4928278;29;20463;-73
2023/03/05 10:54:50;;;;;;;25.80;16.90;;;;;;;10.37;59.60;94261.28;4878995;29;20450;-72
2023/03/05 10:57:19;;;;;;;23.73;15.83;;;;;;;10.47;57.04;94269.94;4986250;28;20800;-72
2023/03/05 10:59:50;;;;;;;27.60;16.30;;;;;;;10.45;57.51;94261.41;4996924;28;20503;-71
2023/03/05 11:02:18;;;;;;;23.40;14.93;;;;;;;10.43;56.12;94258.09;4994038;28;21021;-73
2023/03/05 11:04:47;;;;;;;18.77;13.10;;;;;;;10.47;56.24;94245.50;4994104;28;20455;-73
2023/03/05 11:07:35;;;;;;;23.20;13.87;;;;;;;10.54;54.87;94239.53;4994409;28;20530;-72
2023/03/05 11:10:06;;;;;;;22.50;13.33;;;;;;;10.55;55.94;94235.94;4982216;28;20516;-73
2023/03/05 11:12:35;;;;;;;18.93;13.37;;;;;;;10.53;54.58;94234.44;4994121;28;20456;-74
2023/03/05 11:15:06;;;;;;;23.60;14.77;;;;;;;10.60;56.37;94234.66;4993991;28;20923;-72
2023/03/05 11:17:36;;;;;;;23.23;14.30;;;;;;;10.59;55.54;94219.91;4993662;28;20502;-73
2023/03/05 11:20:29;;;;;;;19.43;11.83;;;;;;;10.53;56.28;94229.19;5042757;28;20457;-72
2023/03/05 11:23:06;;;;;;;18.60;13.33;;;;;;;10.52;55.88;94225.72;5055730;28;20495;-72
2023/03/05 11:25:34;;;;;;;21.40;12.27;;;;;;;10.42;55.96;94211.84;5055688;28;20441;-72
2023/03/05 11:28:03;;;;;;;18.00;11.43;;;;;;;10.34;54.25;94222.22;5052428;28;20458;-72
2023/03/05 11:30:32;;;;;;;15.53;11.90;;;;;;;10.36;55.37;94215.03;5045641;28;20453;-72